Time;durP1;ratioP1;P1;durP2;ratioP2;P2;SDS_P1;SDS_P2;PMS_P1;PMS_P2;Temp;Humidity;BMP_temperature;BMP_pressure;BME280_temperature;BME280_humidity;BME280_pressure;Samples;Min_cycle;Max_cycle;Signal;HPM_P1;HPM_P2
2023/01/29 00:00:35;;;;;;;;;;;;;;;;;;5017281;28;7101;-72
2023/01/29 00:03:01;;;;;;;;;;;;;;;;;;5017318;28;7387;-72
2023/01/29 00:05:26;;;;;;;;;;;;;;;;;;5017227;28;7060;-72
2023/01/29 00:07:52;;;;;;;;;;;;;;;;;;5017199;28;7187;-72
2023/01/29 00:10:17;;;;;;;;;;;;;;;;;;5017051;28;7052;-72
2023/01/29 00:12:43;;;;;;;;;;;;;;;;;;5016541;28;7172;-72
2023/01/29 00:18:11;;;;;;;;;;;;;;;;;;5013796;28;6913;-72
2023/01/29 00:20:42;;;;;;;;;;;;;;;;;;5016912;28;7104;-72
2023/01/29 00:23:07;;;;;;;;;;;;;;;;;;5016762;28;6964;-72
2023/01/29 00:28:48;;;;;;;;;;;;;;;;;;5017012;28;6674;-74
2023/01/29 00:31:16;;;;;;;;;;;;;;;;;;5016659;28;7076;-74
2023/01/29 00:36:36;;;;;;;;;;;;;;;;;;5017237;28;7071;-74
2023/01/29 00:45:08;;;;;;;;;;;;;;;;;;5016190;28;7032;-74
2023/01/29 00:48:00;;;;;;;;;;;;;;;;;;5016483;28;7044;-74
2023/01/29 00:50:25;;;;;;;;;;;;;;;;;;5016368;28;7166;-74
2023/01/29 00:56:00;;;;;;;;;;;;;;;;;;5015641;28;6924;-74
2023/01/29 00:58:33;;;;;;;;;;;;;;;;;;5016020;28;7461;-74
2023/01/29 01:01:01;;;;;;;;;;;;;;;;;;5016186;28;7255;-74
2023/01/29 01:03:28;;;;;;;;;;;;;;;;;;5015931;28;7377;-74
2023/01/29 01:12:17;;;;;;;;;;;;;;;;;;5015716;28;6677;-74
2023/01/29 01:14:43;;;;;;;;;;;;;;;;;;5016052;28;7185;-74
2023/01/29 01:17:11;;;;;;;;;;;;;;;;;;5012660;28;7154;-74
2023/01/29 01:19:37;;;;;;;;;;;;;;;;;;5015740;28;7178;-74
2023/01/29 01:22:03;;;;;;;;;;;;;;;;;;5016253;28;7115;-74
2023/01/29 01:24:29;;;;;;;;;;;;;;;;;;5015817;28;7106;-74
2023/01/29 01:26:55;;;;;;;;;;;;;;;;;;5015652;28;7184;-74
2023/01/29 01:29:29;;;;;;;;;;;;;;;;;;5015645;28;7061;-74
2023/01/29 01:31:55;;;;;;;;;;;;;;;;;;5015388;28;7368;-74
2023/01/29 01:34:21;;;;;;;;;;;;;;;;;;5015485;28;6898;-74
2023/01/29 01:36:47;;;;;;;;;;;;;;;;;;5015485;28;7079;-74
2023/01/29 01:42:38;;;;;;;;;;;;;;;;;;5015096;28;6669;-74
2023/01/29 01:45:06;;;;;;;;;;;;;;;;;;5015333;28;7415;-74
2023/01/29 01:48:02;;;;;;;;;;;;;;;;;;5015300;28;7389;-74
2023/01/29 01:50:30;;;;;;;;;;;;;;;;;;5014910;28;8825;-74
2023/01/29 01:53:01;;;;;;;;;;;;;;;;;;5015111;28;7329;-74
2023/01/29 01:55:29;;;;;;;;;;;;;;;;;;4997428;28;8318;-74
2023/01/29 01:58:33;;;;;;;;;;;;;;;;;;5015291;28;6944;-74
2023/01/29 02:09:40;;;;;;;;;;;;;;;;;;4955188;28;7016;-72
2023/01/29 02:18:12;;;;;;;;;;;;;;;;;;4953884;28;6674;-72
2023/01/29 02:20:42;;;;;;;;;;;;;;;;;;4954404;29;7132;-72
2023/01/29 02:23:22;;;;;;;;;;;;;;;;;;4954384;29;7180;-72
2023/01/29 02:28:55;;;;;;;;;;;;;;;;;;4954576;29;7077;-72
2023/01/29 02:31:45;;;;;;;;;;;;;;;;;;4967797;28;7226;-72
2023/01/29 02:34:17;;;;;;;;;;;;;;;;;;4995189;28;6821;-72
2023/01/29 02:36:46;;;;;;;;;;;;;;;;;;4995148;28;7153;-72
2023/01/29 02:39:41;;;;;;;;;;;;;;;;;;4995004;28;7157;-72
2023/01/29 02:42:14;;;;;;;;;;;;;;;;;;4986342;28;7190;-72
2023/01/29 02:45:02;;;;;;;;;;;;;;;;;;4995101;28;7020;-72
2023/01/29 02:47:34;;;;;;;;;;;;;;;;;;4995095;28;7202;-72
2023/01/29 02:50:02;;;;;;;;;;;;;;;;;;4995064;28;7071;-72
2023/01/29 02:55:27;;;;;;;;;;;;;;;;;;4994678;28;7002;-72
2023/01/29 03:00:44;;;;;;;;;;;;;;;;;;4995820;28;7018;-71
2023/01/29 03:06:40;;;;;;;;;;;;;;;;;;4995073;28;6924;-72
2023/01/29 03:09:30;;;;;;;;;;;;;;;;;;4994990;28;7120;-72
2023/01/29 03:12:03;;;;;;;;;;;;;;;;;;4994768;28;7365;-72
2023/01/29 03:17:26;;;;;;;;;;;;;;;;;;4995259;28;7146;-72
2023/01/29 03:32:06;;;;;;;;;;;;;;;;;;4996398;28;6980;-71
2023/01/29 03:37:34;;;;;;;;;;;;;;;;;;4996415;28;6924;-72
2023/01/29 03:43:09;;;;;;;;;;;;;;;;;;4996340;28;6690;-71
2023/01/29 03:45:59;;;;;;;;;;;;;;;;;;4995988;28;7086;-71
2023/01/29 03:48:37;;;;;;;;;;;;;;;;;;4996132;28;8797;-72
2023/01/29 03:51:09;;;;;;;;;;;;;;;;;;4995843;28;7184;-71
2023/01/29 03:56:53;;;;;;;;;;;;;;;;;;4995882;28;6805;-71
2023/01/29 04:02:28;;;;;;;;;;;;;;;;;;5017053;28;6686;-71
2023/01/29 04:08:02;;;;;;;;;;;;;;;;;;5016998;28;6682;-71
2023/01/29 04:10:28;;;;;;;;;;;;;;;;;;5017069;28;7265;-71
2023/01/29 04:13:04;;;;;;;;;;;;;;;;;;5017427;28;7131;-71
2023/01/29 04:15:36;;;;;;;;;;;;;;;;;;5016948;28;7284;-71
2023/01/29 04:18:03;;;;;;;;;;;;;;;;;;4996249;28;8851;-71
2023/01/29 04:20:29;;;;;;;;;;;;;;;;;;4997893;28;7479;-71
2023/01/29 04:22:54;;;;;;;;;;;;;;;;;;4997481;28;7134;-71
2023/01/29 04:25:25;;;;;;;;;;;;;;;;;;4997183;28;7169;-71
2023/01/29 04:34:00;;;;;;;;;;;;;;;;;;4996907;28;6900;-71
2023/01/29 04:39:33;;;;;;;;;;;;;;;;;;4996983;28;6968;-71
2023/01/29 04:45:03;;;;;;;;;;;;;;;;;;4996958;28;6781;-71
2023/01/29 04:47:47;;;;;;;;;;;;;;;;;;4996897;28;7180;-71
2023/01/29 04:56:11;;;;;;;;;;;;;;;;;;4996508;28;6979;-71
2023/01/29 04:58:43;;;;;;;;;;;;;;;;;;4996788;28;7109;-71
2023/01/29 05:01:43;;;;;;;;;;;;;;;;;;4996510;28;7404;-71
2023/01/29 05:04:28;;;;;;;;;;;;;;;;;;4996520;28;6954;-71
2023/01/29 05:06:55;;;;;;;;;;;;;;;;;;4997561;28;7290;-71
2023/01/29 05:16:04;;;;;;;;;;;;;;;;;;4995994;28;6686;-71
2023/01/29 05:18:31;;;;;;;;;;;;;;;;;;4973699;28;7484;-71
2023/01/29 05:21:01;;;;;;;;;;;;;;;;;;4975696;28;7187;-71
2023/01/29 05:23:26;;;;;;;;;;;;;;;;;;4974369;28;7121;-71
2023/01/29 05:31:57;;;;;;;;;;;;;;;;;;4974347;28;7072;-71
2023/01/29 05:34:45;;;;;;;;;;;;;;;;;;4974312;28;7330;-71
2023/01/29 05:37:11;;;;;;;;;;;;;;;;;;4974605;28;7174;-71
2023/01/29 05:39:36;;;;;;;;;;;;;;;;;;4974376;28;7019;-71
2023/01/29 05:45:06;;;;;;;;;;;;;;;;;;4974420;28;7007;-71
2023/01/29 05:47:31;;;;;;;;;;;;;;;;;;4974208;28;7027;-71
2023/01/29 05:49:57;;;;;;;;;;;;;;;;;;4990782;28;7408;-71
2023/01/29 06:01:32;;;;;;;;;;;;;;;;;;4975999;28;7008;-71
2023/01/29 06:03:57;;;;;;;;;;;;;;;;;;4976158;28;7316;-71
2023/01/29 06:06:23;;;;;;;;;;;;;;;;;;4986473;28;7279;-71
2023/01/29 06:08:48;;;;;;;;;;;;;;;;;;4995444;28;7096;-70
2023/01/29 06:11:49;;;;;;;;;;;;;;;;;;4995400;28;7090;-71
2023/01/29 06:14:15;;;;;;;;;;;;;;;;;;4995418;28;7214;-71
2023/01/29 06:16:40;;;;;;;;;;;;;;;;;;4995369;28;7360;-71
2023/01/29 06:22:15;;;;;;;;;;;;;;;;;;5009391;28;6678;-71
2023/01/29 06:24:40;;;;;;;;;;;;;;;;;;5014705;28;7011;-71
2023/01/29 06:27:06;;;;;;;;;;;;;;;;;;5014544;28;7123;-71
2023/01/29 06:32:37;;;;;;;;;;;;;;;;;;5014467;28;6718;-73
2023/01/29 06:35:03;;;;;;;;;;;;;;;;;;5014603;28;7057;-73
2023/01/29 06:37:28;;;;;;;;;;;;;;;;;;5015965;28;7142;-74
2023/01/29 06:39:54;;;;;;;;;;;;;;;;;;5014673;28;6974;-74
2023/01/29 06:42:26;;;;;;;;;;;;;;;;;;5014794;28;7069;-74
2023/01/29 06:44:53;;;;;;;;;;;;;;;;;;5014359;28;8034;-74
2023/01/29 06:47:18;;;;;;;;;;;;;;;;;;5015341;28;7203;-75
2023/01/29 06:49:44;;;;;;;;;;;;;;;;;;5014462;28;6955;-82
2023/01/29 06:52:10;;;;;;;;;;;;;;;;;;5014391;28;7170;-72
2023/01/29 06:54:52;;;;;;;;;;;;;;;;;;5016081;28;6905;-72
2023/01/29 06:57:18;;;;;;;;;;;;;;;;;;5018471;28;7188;-72
2023/01/29 07:06:09;;;;;;;;;;;;;;;;;;5018126;28;6681;-71
2023/01/29 07:08:35;;;;;;;;;;;;;;;;;;5018501;28;7196;-72
2023/01/29 07:11:16;;;;;;;;;;;;;;;;;;5018237;28;6928;-72
2023/01/29 07:13:42;;;;;;;;;;;;;;;;;;5018454;28;7140;-72
2023/01/29 07:16:08;;;;;;;;;;;;;;;;;;5017204;28;7356;-72
2023/01/29 07:18:34;;;;;;;;;;;;;;;;;;5018128;28;7129;-72
2023/01/29 07:21:03;;;;;;;;;;;;;;;;;;5016135;28;7575;-72
2023/01/29 07:23:40;;;;;;;;;;;;;;;;;;5013600;28;6992;-72
2023/01/29 07:26:06;;;;;;;;;;;;;;;;;;5000333;28;8499;-71
2023/01/29 07:31:34;;;;;;;;;;;;;;;;;;5017669;28;6944;-72
2023/01/29 07:37:05;;;;;;;;;;;;;;;;;;5017257;28;7066;-73
2023/01/29 07:42:44;;;;;;;;;;;;;;;;;;4998533;28;6722;-72
2023/01/29 07:47:39;;;;;;;;;;;;;;;;;;5015595;28;7538;-72
2023/01/29 07:50:04;;;;;;;;;;;;;;;;;;4996538;28;7183;-72
2023/01/29 07:55:32;;;;;;;;;;;;;;;;;;4997284;28;6718;-72
2023/01/29 08:01:06;;;;;;;;;;;;;;;;;;5055667;23;6838;-68
2023/01/29 08:06:34;;;;;;;;;;;;;;;;;;5016906;28;6690;-68
2023/01/29 08:09:07;;;;;;;;;;;;;;;;;;5016922;28;7204;-67
2023/01/29 08:11:33;;;;;;;;;;;;;;;;;;5016528;28;7576;-68
2023/01/29 08:14:28;;;;;;;;;;;;;;;;;;5011172;28;6821;-68
2023/01/29 08:16:54;;;;;;;;;;;;;;;;;;5009053;28;7053;-68
2023/01/29 08:19:31;;;;;;;;;;;;;;;;;;4997281;28;7192;-68
2023/01/29 08:21:56;;;;;;;;;;;;;;;;;;4997977;28;7095;-68
2023/01/29 08:27:31;;;;;;;;;;;;;;;;;;4997116;28;6682;-68
2023/01/29 08:29:56;;;;;;;;;;;;;;;;;;4997021;28;7141;-68
2023/01/29 08:32:22;;;;;;;;;;;;;;;;;;4997003;28;7382;-67
2023/01/29 08:34:47;;;;;;;;;;;;;;;;;;4997042;28;7326;-68
2023/01/29 08:40:32;;;;;;;;;;;;;;;;;;4996765;28;6971;-68
2023/01/29 08:42:58;;;;;;;;;;;;;;;;;;4996891;28;7232;-68
2023/01/29 08:45:24;;;;;;;;;;;;;;;;;;4997769;28;7096;-68
2023/01/29 08:47:49;;;;;;;;;;;;;;;;;;4996750;28;7223;-68
2023/01/29 08:53:39;;;;;;;;;;;;;;;;;;4996485;28;6984;-68
2023/01/29 08:59:08;;;;;;;;;;;;;;;;;;4994364;28;7380;-68
2023/01/29 09:01:34;;;;;;;;;;;;;;;;;;4996492;28;7448;-68
2023/01/29 09:03:59;;;;;;;;;;;;;;;;;;4996289;28;7332;-69
2023/01/29 09:09:27;;;;;;;;;;;;;;;;;;4996229;28;7402;-68
2023/01/29 09:11:53;;;;;;;;;;;;;;;;;;4999045;28;7333;-68
2023/01/29 09:14:18;;;;;;;;;;;;;;;;;;5015858;28;7276;-68
2023/01/29 09:16:45;;;;;;;;;;;;;;;;;;5015729;28;7454;-69
2023/01/29 09:19:10;;;;;;;;;;;;;;;;;;5015381;28;7041;-69
2023/01/29 09:21:38;;;;;;;;;;;;;;;;;;5015504;28;7911;-69
2023/01/29 09:24:03;;;;;;;;;;;;;;;;;;5015598;28;7109;-69
2023/01/29 09:26:29;;;;;;;;;;;;;;;;;;4996346;28;7582;-69
2023/01/29 09:29:03;;;;;;;;;;;;;;;;;;4995971;28;7025;-69
2023/01/29 09:31:29;;;;;;;;;;;;;;;;;;4996019;28;7157;-69
2023/01/29 09:33:54;;;;;;;;;;;;;;;;;;4998416;28;7185;-69
2023/01/29 09:36:20;;;;;;;;;;;;;;;;;;4995808;28;7203;-68
2023/01/29 09:41:50;;;;;;;;;;;;;;;;;;5016131;28;6992;-68
2023/01/29 09:44:24;;;;;;;;;;;;;;;;;;5249823;23;7052;-72
2023/01/29 09:46:53;;;;;;;;;;;;;;;;;;4994399;28;9864;-71
2023/01/29 09:49:30;;;;;;;;;;;;;;;;;;4995787;28;6950;-72
2023/01/29 09:52:06;;;;;;;;;;;;;;;;;;4994636;28;6988;-72
2023/01/29 09:54:50;;;;;;;;;;;;;;;;;;4995756;28;6973;-72
2023/01/29 10:00:48;;;;;;;;;;;;;;;;;;4995450;28;6682;-72
2023/01/29 10:12:36;;;;;;;;;;;;;;;;;;4986082;28;6995;-72
2023/01/29 10:21:26;;;;;;;;;;;;;;;;;;4975744;28;6682;-73
2023/01/29 10:23:58;;;;;;;;;;;;;;;;;;4975920;28;7449;-73
2023/01/29 10:26:37;;;;;;;;;;;;;;;;;;4975814;28;7324;-73
2023/01/29 10:29:05;;;;;;;;;;;;;;;;;;4977289;28;7165;-73
2023/01/29 10:31:38;;;;;;;;;;;;;;;;;;4979807;28;7167;-73
2023/01/29 10:34:13;;;;;;;;;;;;;;;;;;4979915;28;7069;-73
2023/01/29 10:40:17;;;;;;;;;;;;;;;;;;4985975;28;6976;-73
2023/01/29 10:42:50;;;;;;;;;;;;;;;;;;4979530;28;7737;-72
2023/01/29 10:45:46;;;;;;;;;;;;;;;;;;4979043;28;7120;-72
2023/01/29 10:51:14;;;;;;;;;;;;;;;;;;4979358;28;6925;-72
2023/01/29 10:53:52;;;;;;;;;;;;;;;;;;4962262;28;8684;-72
2023/01/29 10:56:48;;;;;;;;;;;;;;;;;;4979393;28;7380;-72
2023/01/29 10:59:13;;;;;;;;;;;;;;;;;;4979348;28;7190;-72
2023/01/29 11:01:39;;;;;;;;;;;;;;;;;;4979363;28;7184;-72
2023/01/29 11:04:05;;;;;;;;;;;;;;;;;;4979350;28;7135;-72
2023/01/29 11:06:36;;;;;;;;;;;;;;;;;;4980378;28;7102;-72
2023/01/29 11:09:17;;;;;;;;;;;;;;;;;;4979948;28;7165;-73
2023/01/29 11:12:03;;;;;;;;;;;;;;;;;;4980424;28;7065;-73
2023/01/29 11:14:33;;;;;;;;;;;;;;;;;;4998478;28;7176;-73
2023/01/29 11:16:58;;;;;;;;;;;;;;;;;;4999678;28;7422;-73
2023/01/29 11:19:44;;;;;;;;;;;;;;;;;;4998201;28;6895;-73
2023/01/29 11:25:17;;;;;;;;;;;;;;;;;;4998075;28;6689;-73
2023/01/29 11:27:49;;;;;;;;;;;;;;;;;;4998117;28;7135;-72
2023/01/29 11:33:16;;;;;;;;;;;;;;;;;;4998530;28;6957;-72
2023/01/29 11:35:42;;;;;;;;;;;;;;;;;;4998060;28;6825;-72
2023/01/29 11:44:17;;;;;;;;;;;;;;;;;;4990009;28;7518;-72
2023/01/29 11:46:44;;;;;;;;;;;;;;;;;;4998162;28;7127;-72
2023/01/29 11:49:21;;;;;;;;;;;;;;;;;;4998505;28;7211;-72
2023/01/29 11:51:52;;;;;;;;;;;;;;;;;;4997774;28;7079;-72
2023/01/29 11:54:19;;;;;;;;;;;;;;;;;;4997745;28;7176;-72
2023/01/29 12:00:21;;;;;;;;;;;;;;;;;;4997661;28;6670;-72
2023/01/29 12:02:52;;;;;;;;;;;;;;;;;;4998438;28;7334;-72
2023/01/29 12:05:21;;;;;;;;;;;;;;;;;;4997707;28;7191;-72
2023/01/29 12:07:49;;;;;;;;;;;;;;;;;;4997587;28;7401;-72
2023/01/29 12:10:34;;;;;;;;;;;;;;;;;;4997649;28;6980;-72
2023/01/29 12:16:15;;;;;;;;;;;;;;;;;;4937614;29;6777;-72
2023/01/29 12:18:49;;;;;;;;;;;;;;;;;;4937440;29;7305;-72
2023/01/29 12:21:28;;;;;;;;;;;;;;;;;;4937460;29;7392;-72
2023/01/29 12:24:15;;;;;;;;;;;;;;;;;;4937489;29;7099;-72
2023/01/29 12:26:45;;;;;;;;;;;;;;;;;;4937026;29;7319;-72
2023/01/29 12:35:26;;;;;;;;;;;;;;;;;;4937575;29;6957;-73
2023/01/29 12:38:17;;;;;;;;;;;;;;;;;;4937222;29;7195;-73
2023/01/29 12:40:47;;;;;;;;;;;;;;;;;;4921153;29;7239;-73
2023/01/29 12:43:31;;;;;;;;;;;;;;;;;;4936941;29;7235;-73
2023/01/29 12:49:23;;;;;;;;;;;;;;;;;;4936990;29;6986;-73
2023/01/29 12:51:55;;;;;;;;;;;;;;;;;;4938785;29;7070;-73
2023/01/29 12:54:44;;;;;;;;;;;;;;;;;;4957537;28;7398;-73
2023/01/29 12:57:23;;;;;;;;;;;;;;;;;;4958307;28;7287;-73
2023/01/29 12:59:54;;;;;;;;;;;;;;;;;;4956569;28;8767;-73
2023/01/29 13:08:29;;;;;;;;;;;;;;;;;;4957610;28;6933;-73
2023/01/29 13:10:57;;;;;;;;;;;;;;;;;;4957746;28;7188;-73
2023/01/29 13:13:54;;;;;;;;;;;;;;;;;;4957358;28;7469;-73
2023/01/29 13:16:29;;;;;;;;;;;;;;;;;;4957578;28;7141;-73
2023/01/29 13:19:17;;;;;;;;;;;;;;;;;;4957884;28;7131;-73
2023/01/29 13:21:44;;;;;;;;;;;;;;;;;;4957590;28;7043;-73
2023/01/29 13:24:19;;;;;;;;;;;;;;;;;;4957549;28;7133;-73
2023/01/29 13:26:46;;;;;;;;;;;;;;;;;;4957333;28;7127;-73
2023/01/29 13:29:30;;;;;;;;;;;;;;;;;;4957308;28;7174;-73
2023/01/29 13:31:57;;;;;;;;;;;;;;;;;;4957275;28;7123;-73
2023/01/29 13:34:23;;;;;;;;;;;;;;;;;;4957259;28;7152;-73
2023/01/29 13:37:01;;;;;;;;;;;;;;;;;;4962853;28;6948;-73
2023/01/29 13:39:42;;;;;;;;;;;;;;;;;;4969546;28;6947;-73
2023/01/29 13:42:26;;;;;;;;;;;;;;;;;;4975686;28;7184;-73
2023/01/29 13:44:55;;;;;;;;;;;;;;;;;;4971056;28;7126;-73
2023/01/29 13:47:24;;;;;;;;;;;;;;;;;;4956903;28;7279;-72
2023/01/29 13:49:56;;;;;;;;;;;;;;;;;;4957097;28;6940;-73
2023/01/29 13:52:30;;;;;;;;;;;;;;;;;;4956968;28;7044;-72
2023/01/29 13:55:25;;;;;;;;;;;;;;;;;;4956880;28;6949;-72
2023/01/29 13:57:52;;;;;;;;;;;;;;;;;;4956576;28;6984;-72
2023/01/29 14:00:21;;;;;;;;;;;;;;;;;;4956862;28;7165;-72
2023/01/29 14:03:12;;;;;;;;;;;;;;;;;;4956827;28;7123;-72
2023/01/29 14:05:41;;;;;;;;;;;;;;;;;;4956709;28;7459;-72
2023/01/29 14:08:13;;;;;;;;;;;;;;;;;;4956631;28;6934;-72
2023/01/29 14:10:41;;;;;;;;;;;;;;;;;;4956954;28;7028;-72
2023/01/29 14:13:07;;;;;;;;;;;;;;;;;;4944670;28;7437;-72
2023/01/29 14:15:33;;;;;;;;;;;;;;;;;;4937598;29;7235;-72
2023/01/29 14:18:08;;;;;;;;;;;;;;;;;;4937287;29;7376;-72
2023/01/29 14:20:36;;;;;;;;;;;;;;;;;;4937376;29;7380;-72
2023/01/29 14:23:04;;;;;;;;;;;;;;;;;;4937402;29;7152;-73
2023/01/29 14:25:32;;;;;;;;;;;;;;;;;;4937322;29;7081;-73
2023/01/29 14:28:26;;;;;;;;;;;;;;;;;;4937479;29;7048;-72
2023/01/29 14:30:52;;;;;;;;;;;;;;;;;;4937541;29;7059;-72
2023/01/29 14:33:23;;;;;;;;;;;;;;;;;;4937271;29;7146;-72
2023/01/29 14:35:58;;;;;;;;;;;;;;;;;;4937225;29;8231;-72
2023/01/29 14:38:27;;;;;;;;;;;;;;;;;;4937213;29;7255;-72
2023/01/29 14:41:10;;;;;;;;;;;;;;;;;;4937333;29;6950;-72
2023/01/29 14:43:35;;;;;;;;;;;;;;;;;;4937037;29;7106;-72
2023/01/29 14:46:52;;;;;;;;;;;;;;;;;;4965822;28;7151;-72
2023/01/29 14:55:48;;;;;;;;;;;;;;;;;;4975403;28;6670;-72
2023/01/29 14:58:26;;;;;;;;;;;;;;;;;;4975968;28;9603;-73
2023/01/29 15:04:02;;;;;;;;;;;;;;;;;;4975345;28;7008;-72
2023/01/29 15:06:48;;;;;;;;;;;;;;;;;;4975595;28;7165;-73
2023/01/29 15:09:17;;;;;;;;;;;;;;;;;;4975221;28;7054;-74
2023/01/29 15:14:53;;;;;;;;;;;;;;;;;;4975185;28;6929;-73
2023/01/29 15:17:28;;;;;;;;;;;;;;;;;;4978684;28;7051;-73
2023/01/29 15:19:55;;;;;;;;;;;;;;;;;;4979168;28;7374;-73
2023/01/29 15:22:35;;;;;;;;;;;;;;;;;;4978973;28;7104;-73
2023/01/29 15:25:02;;;;;;;;;;;;;;;;;;4979182;28;7504;-73
2023/01/29 15:27:28;;;;;;;;;;;;;;;;;;4978905;28;7416;-73
2023/01/29 15:30:07;;;;;;;;;;;;;;;;;;4978961;28;7132;-73
2023/01/29 15:32:32;;;;;;;;;;;;;;;;;;4978817;28;7081;-73
2023/01/29 15:34:59;;;;;;;;;;;;;;;;;;4978475;28;7793;-73
2023/01/29 15:37:28;;;;;;;;;;;;;;;;;;4978737;28;7168;-74
2023/01/29 15:39:55;;;;;;;;;;;;;;;;;;4978639;28;7137;-74
2023/01/29 15:45:26;;;;;;;;;;;;;;;;;;4974857;28;6681;-74
2023/01/29 15:51:00;;;;;;;;;;;;;;;;;;4978337;28;6685;-74
2023/01/29 15:53:39;;;;;;;;;;;;;;;;;;4978023;28;7728;-74
2023/01/29 15:56:10;;;;;;;;;;;;;;;;;;4978527;28;7928;-71
2023/01/29 15:58:37;;;;;;;;;;;;;;;;;;4979201;28;7108;-71
2023/01/29 16:01:14;;;;;;;;;;;;;;;;;;4978334;28;7372;-71
2023/01/29 16:03:41;;;;;;;;;;;;;;;;;;4978194;28;7162;-71
2023/01/29 16:06:09;;;;;;;;;;;;;;;;;;5004314;28;7178;-71
2023/01/29 16:08:37;;;;;;;;;;;;;;;;;;5017258;28;7072;-70
2023/01/29 16:11:05;;;;;;;;;;;;;;;;;;4998708;28;7314;-71
2023/01/29 16:14:05;;;;;;;;;;;;;;;;;;4997356;28;7156;-71
2023/01/29 16:16:31;;;;;;;;;;;;;;;;;;4997443;28;7742;-71
2023/01/29 16:28:06;;;;;;;;;;;;;;;;;;4997109;28;6917;-71
2023/01/29 16:33:37;;;;;;;;;;;;;;;;;;4996909;28;6825;-71
2023/01/29 16:36:10;;;;;;;;;;;;;;;;;;4997165;28;7288;-71
2023/01/29 16:38:39;;;;;;;;;;;;;;;;;;4997052;28;7082;-71
2023/01/29 16:41:07;;;;;;;;;;;;;;;;;;4997061;28;6976;-71
2023/01/29 16:43:58;;;;;;;;;;;;;;;;;;4996992;28;7404;-71
2023/01/29 16:46:44;;;;;;;;;;;;;;;;;;4968474;28;7411;-71
2023/01/29 16:49:25;;;;;;;;;;;;;;;;;;4958071;28;7075;-71
2023/01/29 16:51:55;;;;;;;;;;;;;;;;;;4958844;28;7269;-71
2023/01/29 16:54:24;;;;;;;;;;;;;;;;;;4958026;28;7205;-71
2023/01/29 16:57:18;;;;;;;;;;;;;;;;;;4956727;28;8543;-71
2023/01/29 16:59:45;;;;;;;;;;;;;;;;;;4973530;28;9446;-71
2023/01/29 17:08:02;;;;;;;;;;;;;;;;;;4957839;28;6906;-71
2023/01/29 17:10:36;;;;;;;;;;;;;;;;;;4957629;28;7615;-71
2023/01/29 17:13:07;;;;;;;;;;;;;;;;;;4953682;28;7413;-71
2023/01/29 17:16:03;;;;;;;;;;;;;;;;;;4938468;29;7070;-71
2023/01/29 17:18:48;;;;;;;;;;;;;;;;;;4939358;28;7457;-71
2023/01/29 17:21:13;;;;;;;;;;;;;;;;;;4938405;28;7267;-71
2023/01/29 17:23:55;;;;;;;;;;;;;;;;;;4938348;29;7045;-71
2023/01/29 17:26:22;;;;;;;;;;;;;;;;;;4938279;29;7456;-71
2023/01/29 17:28:49;;;;;;;;;;;;;;;;;;4938312;29;7038;-71
2023/01/29 17:31:15;;;;;;;;;;;;;;;;;;4938068;29;7087;-71
2023/01/29 17:33:41;;;;;;;;;;;;;;;;;;4938126;29;6929;-71
2023/01/29 17:39:21;;;;;;;;;;;;;;;;;;4937365;29;6934;-71
2023/01/29 17:42:04;;;;;;;;;;;;;;;;;;4937972;29;7101;-71
2023/01/29 17:44:29;;;;;;;;;;;;;;;;;;4938006;29;7251;-71
2023/01/29 17:46:55;;;;;;;;;;;;;;;;;;4974066;28;7148;-71
2023/01/29 17:49:28;;;;;;;;;;;;;;;;;;4976104;28;7034;-71
2023/01/29 17:54:56;;;;;;;;;;;;;;;;;;4975907;28;6725;-71
2023/01/29 17:57:38;;;;;;;;;;;;;;;;;;4977067;28;6913;-71
2023/01/29 18:00:22;;;;;;;;;;;;;;;;;;4976224;28;7163;-71
2023/01/29 18:02:48;;;;;;;;;;;;;;;;;;4976068;28;7188;-71
2023/01/29 18:08:15;;;;;;;;;;;;;;;;;;4976706;28;6956;-71
2023/01/29 18:11:07;;;;;;;;;;;;;;;;;;4975771;28;7381;-71
2023/01/29 18:13:34;;;;;;;;;;;;;;;;;;4958475;28;8903;-71
2023/01/29 18:16:07;;;;;;;;;;;;;;;;;;4975909;28;7585;-71
2023/01/29 18:18:32;;;;;;;;;;;;;;;;;;4976057;28;7279;-72
2023/01/29 18:21:14;;;;;;;;;;;;;;;;;;4975734;28;7069;-71
2023/01/29 18:23:39;;;;;;;;;;;;;;;;;;4975756;28;7076;-71
2023/01/29 18:29:08;;;;;;;;;;;;;;;;;;4975747;28;6905;-72
2023/01/29 18:34:36;;;;;;;;;;;;;;;;;;4975625;28;7127;-71
2023/01/29 18:40:05;;;;;;;;;;;;;;;;;;4993819;28;6937;-71
2023/01/29 18:42:32;;;;;;;;;;;;;;;;;;4995191;28;7188;-71
2023/01/29 18:44:59;;;;;;;;;;;;;;;;;;4994991;28;7507;-71
2023/01/29 18:47:24;;;;;;;;;;;;;;;;;;4995109;28;7461;-71
2023/01/29 18:52:53;;;;;;;;;;;;;;;;;;4998787;28;6677;-71
2023/01/29 18:55:42;;;;;;;;;;;;;;;;;;4998557;28;7070;-71
2023/01/29 18:58:08;;;;;;;;;;;;;;;;;;4998909;28;7464;-71
2023/01/29 19:00:33;;;;;;;;;;;;;;;;;;4981279;28;7153;-71
2023/01/29 19:06:03;;;;;;;;;;;;;;;;;;4998623;28;7390;-72
2023/01/29 19:08:29;;;;;;;;;;;;;;;;;;4999339;28;6953;-71
2023/01/29 19:10:56;;;;;;;;;;;;;;;;;;4998681;28;6796;-71
2023/01/29 19:13:22;;;;;;;;;;;;;;;;;;4998935;28;7140;-71
2023/01/29 19:15:47;;;;;;;;;;;;;;;;;;4982831;28;7532;-72
2023/01/29 19:21:16;;;;;;;;;;;;;;;;;;4978819;28;6813;-71
2023/01/29 19:23:43;;;;;;;;;;;;;;;;;;4979166;28;8088;-71
2023/01/29 19:26:10;;;;;;;;;;;;;;;;;;4978631;28;7272;-71
2023/01/29 19:28:35;;;;;;;;;;;;;;;;;;4978899;28;6974;-71
2023/01/29 19:31:01;;;;;;;;;;;;;;;;;;4979525;28;6913;-71
2023/01/29 19:36:27;;;;;;;;;;;;;;;;;;4979071;28;6906;-72
2023/01/29 19:39:05;;;;;;;;;;;;;;;;;;4978632;28;6794;-71
2023/01/29 19:41:31;;;;;;;;;;;;;;;;;;4978736;28;6880;-71
2023/01/29 19:43:57;;;;;;;;;;;;;;;;;;4979337;28;7338;-71
2023/01/29 19:46:22;;;;;;;;;;;;;;;;;;4975047;28;7389;-72
2023/01/29 19:48:58;;;;;;;;;;;;;;;;;;4978221;28;6979;-71
2023/01/29 19:51:24;;;;;;;;;;;;;;;;;;4980035;28;7114;-71
2023/01/29 19:53:50;;;;;;;;;;;;;;;;;;4978477;28;6920;-71
2023/01/29 19:56:35;;;;;;;;;;;;;;;;;;4978349;28;7105;-71
2023/01/29 19:59:01;;;;;;;;;;;;;;;;;;4977786;28;6966;-71
2023/01/29 20:04:29;;;;;;;;;;;;;;;;;;4978105;28;6965;-71
2023/01/29 20:06:55;;;;;;;;;;;;;;;;;;4978753;28;7172;-71
2023/01/29 20:09:22;;;;;;;;;;;;;;;;;;4978219;28;7024;-71
2023/01/29 20:11:47;;;;;;;;;;;;;;;;;;4980652;28;6928;-71
2023/01/29 20:14:13;;;;;;;;;;;;;;;;;;4978516;28;7112;-71
2023/01/29 20:17:00;;;;;;;;;;;;;;;;;;4978144;28;7110;-71
2023/01/29 20:19:59;;;;;;;;;;;;;;;;;;4978082;28;7512;-71
2023/01/29 20:22:25;;;;;;;;;;;;;;;;;;4977923;28;7316;-71
2023/01/29 20:24:51;;;;;;;;;;;;;;;;;;4977943;28;7063;-71
2023/01/29 20:30:54;;;;;;;;;;;;;;;;;;4977618;28;6678;-72
2023/01/29 20:33:20;;;;;;;;;;;;;;;;;;4977693;28;6969;-71
2023/01/29 20:35:53;;;;;;;;;;;;;;;;;;4977647;28;7115;-71
2023/01/29 20:38:18;;;;;;;;;;;;;;;;;;4977802;28;7036;-72
2023/01/29 20:40:44;;;;;;;;;;;;;;;;;;4976249;28;7001;-71
2023/01/29 20:43:24;;;;;;;;;;;;;;;;;;4977796;28;7037;-71
2023/01/29 20:46:01;;;;;;;;;;;;;;;;;;4977593;28;7064;-71
2023/01/29 20:48:26;;;;;;;;;;;;;;;;;;4977191;28;7075;-71
2023/01/29 20:50:52;;;;;;;;;;;;;;;;;;4977417;28;6924;-71
2023/01/29 20:53:18;;;;;;;;;;;;;;;;;;4977276;28;7231;-72
2023/01/29 20:55:44;;;;;;;;;;;;;;;;;;4977353;28;7146;-72
2023/01/29 20:58:10;;;;;;;;;;;;;;;;;;4985395;28;7193;-74
2023/01/29 21:00:46;;;;;;;;;;;;;;;;;;4995805;28;7154;-74
2023/01/29 21:03:12;;;;;;;;;;;;;;;;;;4991635;28;7459;-72
2023/01/29 21:05:58;;;;;;;;;;;;;;;;;;4993768;28;6886;-72
2023/01/29 21:08:24;;;;;;;;;;;;;;;;;;4989137;28;7045;-72
2023/01/29 21:11:22;;;;;;;;;;;;;;;;;;4985246;28;7079;-72
2023/01/29 21:13:50;;;;;;;;;;;;;;;;;;4993267;28;8315;-72
2023/01/29 21:19:34;;;;;;;;;;;;;;;;;;4996177;28;6710;-72
2023/01/29 21:22:00;;;;;;;;;;;;;;;;;;4996118;28;7143;-72
2023/01/29 21:30:32;;;;;;;;;;;;;;;;;;4995993;28;6969;-72
2023/01/29 21:35:56;;;;;;;;;;;;;;;;;;4996842;28;7061;-72
2023/01/29 21:38:28;;;;;;;;;;;;;;;;;;4987086;28;7021;-72
2023/01/29 21:40:58;;;;;;;;;;;;;;;;;;4976577;28;6973;-72
2023/01/29 21:43:24;;;;;;;;;;;;;;;;;;4976104;28;7397;-72
2023/01/29 21:45:54;;;;;;;;;;;;;;;;;;4965291;28;7251;-72
2023/01/29 21:48:19;;;;;;;;;;;;;;;;;;4937972;29;7149;-72
2023/01/29 21:51:07;;;;;;;;;;;;;;;;;;4937687;29;7208;-72
2023/01/29 21:53:33;;;;;;;;;;;;;;;;;;4938562;29;7149;-72
2023/01/29 21:56:03;;;;;;;;;;;;;;;;;;4937549;29;7126;-72
2023/01/29 21:58:29;;;;;;;;;;;;;;;;;;4939006;28;7110;-72
2023/01/29 22:00:55;;;;;;;;;;;;;;;;;;4952887;28;7226;-72
2023/01/29 22:03:21;;;;;;;;;;;;;;;;;;4956718;28;7181;-72
2023/01/29 22:05:48;;;;;;;;;;;;;;;;;;4956678;28;7131;-72
2023/01/29 22:08:15;;;;;;;;;;;;;;;;;;4956874;28;7122;-72
2023/01/29 22:13:43;;;;;;;;;;;;;;;;;;4956559;28;6945;-72
2023/01/29 22:16:09;;;;;;;;;;;;;;;;;;4956371;28;6905;-72
2023/01/29 22:18:34;;;;;;;;;;;;;;;;;;4956730;28;7111;-72
2023/01/29 22:21:03;;;;;;;;;;;;;;;;;;4956672;28;7146;-72
2023/01/29 22:23:40;;;;;;;;;;;;;;;;;;4948845;28;7260;-72
2023/01/29 22:26:08;;;;;;;;;;;;;;;;;;4953971;28;6939;-72
2023/01/29 22:28:56;;;;;;;;;;;;;;;;;;4956614;28;7202;-72
2023/01/29 22:31:21;;;;;;;;;;;;;;;;;;4956456;29;7170;-72
2023/01/29 22:33:47;;;;;;;;;;;;;;;;;;4955924;29;7396;-72
2023/01/29 22:36:13;;;;;;;;;;;;;;;;;;4954901;29;7132;-72
2023/01/29 22:38:41;;;;;;;;;;;;;;;;;;4955810;29;7143;-72
2023/01/29 22:41:06;;;;;;;;;;;;;;;;;;4955985;29;7199;-72
2023/01/29 22:43:41;;;;;;;;;;;;;;;;;;4955924;29;7122;-72
2023/01/29 22:49:36;;;;;;;;;;;;;;;;;;4936842;29;6970;-72
2023/01/29 22:54:51;;;;;;;;;;;;;;;;;;4944644;29;6930;-76
2023/01/29 22:57:22;;;;;;;;;;;;;;;;;;4950059;29;7018;-76
2023/01/29 22:59:49;;;;;;;;;;;;;;;;;;4936860;29;7206;-76
2023/01/29 23:02:14;;;;;;;;;;;;;;;;;;4937606;29;6966;-76
2023/01/29 23:04:40;;;;;;;;;;;;;;;;;;4939881;29;7176;-76
2023/01/29 23:07:05;;;;;;;;;;;;;;;;;;4938640;29;7032;-76